Time;durP1;ratioP1;P1;durP2;ratioP2;P2;SDS_P1;SDS_P2;PMS_P1;PMS_P2;Temp;Humidity;BMP_temperature;BMP_pressure;BME280_temperature;BME280_humidity;BME280_pressure;Samples;Min_cycle;Max_cycle;Signal;HPM_P1;HPM_P2
2022/03/04 00:00:04;;;;;;;16.55;4.95;;;;;;;0.27;85.81;101744.19;6041161;28;20026;-73
2022/03/04 00:02:59;;;;;;;18.27;6.07;;;;;;;0.24;85.57;101746.91;6031360;28;20027;-71
2022/03/04 00:05:54;;;;;;;16.63;5.87;;;;;;;0.26;85.43;101750.28;6029858;28;20081;-71
2022/03/04 00:08:50;;;;;;;12.53;4.77;;;;;;;0.31;84.79;101745.75;6030400;28;20109;-73
2022/03/04 00:11:45;;;;;;;16.15;5.57;;;;;;;0.30;84.93;101742.28;6029107;28;20049;-72
2022/03/04 00:14:41;;;;;;;13.85;5.18;;;;;;;0.35;84.72;101745.63;6027876;28;20439;-72
2022/03/04 00:17:36;;;;;;;16.37;5.47;;;;;;;0.34;84.54;101750.88;6030016;28;20038;-71
2022/03/04 00:20:31;;;;;;;15.93;5.87;;;;;;;0.40;84.93;101755.88;6029324;28;20581;-72
2022/03/04 00:23:27;;;;;;;18.30;5.53;;;;;;;0.40;84.13;101755.88;6029585;28;20053;-73
2022/03/04 00:26:22;;;;;;;11.30;4.77;;;;;;;0.45;84.48;101762.63;6030224;28;20022;-72
2022/03/04 00:29:17;;;;;;;15.97;5.97;;;;;;;0.42;84.48;101759.28;6029314;28;20038;-71
2022/03/04 00:32:13;;;;;;;14.30;4.53;;;;;;;0.42;84.18;101762.72;6029449;28;20096;-73
2022/03/04 00:35:08;;;;;;;17.70;5.57;;;;;;;0.49;84.17;101760.75;6029590;28;20093;-72
2022/03/04 00:38:04;;;;;;;16.98;5.45;;;;;;;0.47;83.70;101758.19;6029427;28;20421;-72
2022/03/04 00:40:59;;;;;;;13.87;5.03;;;;;;;0.50;83.58;101759.84;6028790;28;20038;-72
2022/03/04 00:43:54;;;;;;;14.13;4.60;;;;;;;0.59;83.88;101759.50;6029377;28;20048;-72
2022/03/04 00:46:49;;;;;;;15.97;4.77;;;;;;;0.57;83.40;101763.94;6028942;28;20034;-71
2022/03/04 00:49:45;;;;;;;17.80;4.50;;;;;;;0.56;83.26;101759.63;6029145;28;20026;-72
2022/03/04 00:52:40;;;;;;;16.37;5.60;;;;;;;0.56;83.45;101759.63;6028509;28;20069;-70
2022/03/04 00:55:37;;;;;;;14.23;5.63;;;;;;;0.59;83.26;101768.19;6028229;28;20490;-71
2022/03/04 00:58:35;;;;;;;13.68;4.88;;;;;;;0.63;83.13;101763.69;6024041;28;20541;-72
2022/03/04 01:01:31;;;;;;;16.45;5.35;;;;;;;0.67;83.73;101762.69;6027127;28;20153;-71
2022/03/04 01:04:26;;;;;;;14.93;5.70;;;;;;;0.66;83.28;101762.72;6027992;28;20457;-72
2022/03/04 01:07:21;;;;;;;13.77;4.97;;;;;;;0.67;83.39;101761.81;6029119;28;20077;-71
2022/03/04 01:10:17;;;;;;;13.07;5.27;;;;;;;0.68;83.66;101760.94;6028727;28;21127;-73
2022/03/04 01:13:12;;;;;;;13.00;4.47;;;;;;;0.72;84.02;101768.56;6028989;28;20062;-72
2022/03/04 01:16:07;;;;;;;12.65;5.15;;;;;;;0.66;83.62;101770.53;6028609;28;20751;-71
2022/03/04 01:19:03;;;;;;;19.70;6.63;;;;;;;0.67;82.78;101761.81;6028343;28;20042;-72
2022/03/04 01:21:58;;;;;;;13.43;4.95;;;;;;;0.70;83.84;101764.31;6027971;28;20504;-72
2022/03/04 01:24:54;;;;;;;15.03;4.43;;;;;;;0.68;83.44;101751.31;6028951;28;20030;-71
2022/03/04 01:27:49;;;;;;;14.93;4.50;;;;;;;0.70;82.81;101752.13;6028366;28;20045;-72
2022/03/04 01:30:44;;;;;;;12.03;4.43;;;;;;;0.68;83.01;101743.47;6027756;28;20450;-71
2022/03/04 01:33:40;;;;;;;16.40;6.77;;;;;;;0.64;82.73;101734.09;6027905;28;20320;-72
2022/03/04 01:36:35;;;;;;;13.23;4.37;;;;;;;0.69;82.42;101739.97;6039914;28;20042;-73
2022/03/04 01:39:30;;;;;;;13.47;5.17;;;;;;;0.68;82.46;101751.31;6031167;28;20463;-70
2022/03/04 01:42:26;;;;;;;13.13;4.70;;;;;;;0.64;82.44;101746.28;6027324;28;20269;-72
2022/03/04 01:45:22;;;;;;;17.05;4.93;;;;;;;0.66;83.01;101740.09;6028215;28;20454;-71
2022/03/04 01:48:19;;;;;;;11.70;4.13;;;;;;;0.71;82.86;101743.38;6028217;28;20121;-72
2022/03/04 01:51:15;;;;;;;13.70;4.78;;;;;;;0.68;82.44;101738.25;6027503;28;20041;-72
2022/03/04 01:54:10;;;;;;;15.03;4.20;;;;;;;0.70;82.90;101743.44;6027904;28;20038;-72
2022/03/04 01:57:06;;;;;;;15.27;5.23;;;;;;;0.74;82.58;101738.03;6027650;28;20033;-72
2022/03/04 02:00:04;;;;;;;12.90;4.88;;;;;;;0.77;82.75;101732.69;6027214;28;20112;-73
2022/03/04 02:03:00;;;;;;;13.48;4.30;;;;;;;0.80;82.45;101743.03;6027413;28;20066;-72
2022/03/04 02:05:55;;;;;;;10.93;5.07;;;;;;;0.79;82.03;101745.72;6027802;28;20110;-72
2022/03/04 02:08:51;;;;;;;11.70;4.77;;;;;;;0.82;81.83;101729.91;6027480;28;20025;-71
2022/03/04 02:11:48;;;;;;;12.13;4.22;;;;;;;0.81;82.05;101736.91;6026657;28;20157;-71
2022/03/04 02:14:43;;;;;;;16.00;5.05;;;;;;;0.83;82.57;101729.88;6027247;28;20041;-70
2022/03/04 02:17:39;;;;;;;12.50;4.73;;;;;;;0.85;82.29;101730.66;6027191;28;20034;-71
2022/03/04 02:20:34;;;;;;;12.60;4.80;;;;;;;0.79;82.80;101730.06;6026750;28;20030;-73
2022/03/04 02:23:30;;;;;;;9.65;4.28;;;;;;;0.76;83.12;101725.78;6026136;28;20036;-71
2022/03/04 02:26:25;;;;;;;11.10;3.37;;;;;;;0.81;82.81;101723.00;6026811;28;20505;-73
2022/03/04 02:29:21;;;;;;;14.33;5.53;;;;;;;0.76;82.30;101717.13;6027271;28;20385;-71
2022/03/04 02:32:18;;;;;;;12.32;4.53;;;;;;;0.77;82.44;101717.03;6026227;28;20285;-72
2022/03/04 02:35:13;;;;;;;11.98;5.25;;;;;;;0.77;82.11;101724.88;6027278;28;20374;-73
2022/03/04 02:38:09;;;;;;;10.20;5.00;;;;;;;0.79;81.93;101720.44;6026475;28;20041;-71
2022/03/04 02:41:05;;;;;;;13.20;4.87;;;;;;;0.79;82.26;101717.81;6025898;28;20121;-70
2022/03/04 02:44:02;;;;;;;15.45;5.10;;;;;;;0.78;82.28;101723.97;6023580;28;20280;-71
2022/03/04 02:46:58;;;;;;;11.65;4.15;;;;;;;0.82;82.56;101719.47;6022017;28;20410;-71
2022/03/04 02:49:53;;;;;;;12.43;4.57;;;;;;;0.86;82.22;101731.50;6022940;28;20030;-71
2022/03/04 02:52:49;;;;;;;12.30;4.50;;;;;;;0.84;81.47;101726.34;6025799;28;20030;-71
2022/03/04 02:55:44;;;;;;;13.70;5.45;;;;;;;0.84;82.28;101738.56;6026257;28;20029;-70
2022/03/04 02:58:39;;;;;;;13.40;5.23;;;;;;;0.78;81.82;101733.56;6026381;28;20038;-73
2022/03/04 03:01:35;;;;;;;10.67;4.00;;;;;;;0.82;81.52;101740.34;6036655;28;20030;-72
2022/03/04 03:04:30;;;;;;;11.83;4.13;;;;;;;0.82;81.91;101725.53;6026429;28;20484;-71
2022/03/04 03:07:25;;;;;;;11.80;4.80;;;;;;;0.77;82.40;101732.69;6025838;28;20015;-71
2022/03/04 03:10:21;;;;;;;10.80;3.77;;;;;;;0.76;83.01;101745.81;6025572;28;20030;-71
2022/03/04 03:13:16;;;;;;;11.57;4.07;;;;;;;0.74;82.59;101743.25;6026275;28;20356;-70
2022/03/04 03:16:11;;;;;;;10.80;4.17;;;;;;;0.69;82.74;101726.94;6025492;28;20062;-71
2022/03/04 03:19:08;;;;;;;15.57;5.37;;;;;;;0.68;82.40;101724.38;6025952;28;20045;-71
2022/03/04 03:22:03;;;;;;;11.60;4.20;;;;;;;0.68;82.89;101738.25;6019235;28;20266;-72
2022/03/04 03:24:59;;;;;;;13.07;4.65;;;;;;;0.61;82.53;101726.38;6025820;28;20042;-71
2022/03/04 03:27:54;;;;;;;10.97;5.20;;;;;;;0.62;82.96;101729.84;6025897;28;20080;-72
2022/03/04 03:30:49;;;;;;;14.20;5.07;;;;;;;0.60;82.59;101724.66;6024823;28;20819;-72
2022/03/04 03:33:45;;;;;;;13.93;4.50;;;;;;;0.56;83.12;101720.47;6025733;28;20414;-69
2022/03/04 03:36:40;;;;;;;9.13;3.50;;;;;;;0.47;83.01;101718.19;6025383;28;20409;-73
2022/03/04 03:39:36;;;;;;;11.25;4.68;;;;;;;0.49;83.20;101732.06;6026283;28;20416;-71
2022/03/04 03:42:32;;;;;;;9.23;4.18;;;;;;;0.45;83.43;101723.50;6024810;28;20481;-72
2022/03/04 03:45:27;;;;;;;12.40;4.97;;;;;;;0.42;83.31;101731.44;6025437;28;20026;-71
2022/03/04 03:48:22;;;;;;;13.67;5.40;;;;;;;0.37;84.05;101719.47;6025695;28;20737;-73
2022/03/04 03:51:18;;;;;;;15.20;4.90;;;;;;;0.29;83.84;101718.91;6025211;28;20046;-72
2022/03/04 03:54:13;;;;;;;13.33;4.50;;;;;;;0.26;84.04;101730.28;6025059;28;20026;-70
2022/03/04 03:57:10;;;;;;;13.47;5.10;;;;;;;0.21;83.92;101728.75;6014381;28;20167;-71
2022/03/04 04:00:05;;;;;;;7.85;3.28;;;;;;;0.19;84.06;101730.56;6024940;28;20035;-73
2022/03/04 04:03:01;;;;;;;11.95;4.25;;;;;;;0.10;83.94;101723.94;6025236;28;20042;-71
2022/03/04 04:05:56;;;;;;;16.17;5.03;;;;;;;0.02;83.80;101720.75;6024755;28;20026;-71
2022/03/04 04:08:52;;;;;;;13.10;4.47;;;;;;;-0.07;84.60;101729.75;6025766;28;20109;-72
2022/03/04 04:11:47;;;;;;;13.35;4.88;;;;;;;-0.09;85.24;101738.53;6024324;28;20037;-71
2022/03/04 04:14:42;;;;;;;16.15;5.50;;;;;;;-0.10;84.87;101740.25;6025180;28;20100;-70
2022/03/04 04:17:38;;;;;;;13.60;4.83;;;;;;;-0.09;85.45;101735.91;6025745;28;20080;-72
2022/03/04 04:20:35;;;;;;;15.90;6.00;;;;;;;-0.15;85.03;101741.31;6024520;28;20270;-71
2022/03/04 04:23:30;;;;;;;15.32;5.97;;;;;;;-0.18;85.67;101750.09;6025131;28;20057;-71
2022/03/04 04:26:26;;;;;;;14.63;5.37;;;;;;;-0.26;85.63;101746.06;6025409;28;20026;-72
2022/03/04 04:29:21;;;;;;;13.18;6.00;;;;;;;-0.36;86.10;101755.94;6025080;28;20114;-72
2022/03/04 04:32:16;;;;;;;11.10;4.57;;;;;;;-0.40;86.11;101754.34;6024913;28;20034;-70
2022/03/04 04:35:12;;;;;;;14.13;4.90;;;;;;;-0.42;86.31;101758.75;6024586;28;20450;-71
2022/03/04 04:38:07;;;;;;;14.67;4.30;;;;;;;-0.48;86.48;101756.34;6032294;28;20057;-71
2022/03/04 04:41:03;;;;;;;15.32;4.40;;;;;;;-0.62;87.01;101753.31;6035095;28;20030;-71
2022/03/04 04:43:58;;;;;;;15.87;5.23;;;;;;;-0.62;86.64;101754.19;6030208;28;20405;-71
2022/03/04 04:46:53;;;;;;;13.80;5.30;;;;;;;-0.73;87.39;101756.28;6029448;28;20038;-72
2022/03/04 04:49:48;;;;;;;16.87;5.10;;;;;;;-0.74;87.25;101748.53;6029715;28;20030;-72
2022/03/04 04:52:44;;;;;;;12.63;5.57;;;;;;;-0.71;87.76;101748.44;6028684;28;20030;-73
2022/03/04 04:55:40;;;;;;;11.77;5.53;;;;;;;-0.83;87.45;101747.06;6028852;28;20281;-71
2022/03/04 04:58:35;;;;;;;14.65;4.40;;;;;;;-0.79;88.05;101750.44;6029335;28;20454;-70
2022/03/04 05:01:30;;;;;;;16.67;4.40;;;;;;;-0.88;88.01;101755.91;6028314;28;20042;-70
2022/03/04 05:04:26;;;;;;;15.57;4.33;;;;;;;-0.92;88.63;101752.56;6028949;28;20269;-72
2022/03/04 05:07:22;;;;;;;12.07;4.67;;;;;;;-1.02;88.40;101753.75;6029512;28;20421;-71
2022/03/04 05:10:18;;;;;;;15.40;5.43;;;;;;;-1.07;88.78;101749.59;6027986;28;20030;-71
2022/03/04 05:13:14;;;;;;;17.17;6.00;;;;;;;-1.10;89.11;101757.47;6026495;28;20080;-71
2022/03/04 05:16:09;;;;;;;14.82;4.97;;;;;;;-1.26;89.59;101744.94;6029101;28;20033;-70
2022/03/04 05:19:04;;;;;;;11.77;3.97;;;;;;;-1.33;89.72;101750.34;6028621;28;20041;-70
2022/03/04 05:22:00;;;;;;;13.50;4.43;;;;;;;-1.53;89.52;101750.97;6028051;28;20057;-70
2022/03/04 05:24:55;;;;;;;15.17;4.10;;;;;;;-1.41;90.14;101745.38;6027825;28;20034;-74
2022/03/04 05:27:50;;;;;;;12.77;4.57;;;;;;;-1.59;89.67;101763.28;6028784;28;20034;-71
2022/03/04 05:30:45;;;;;;;13.67;4.73;;;;;;;-1.53;90.21;101756.16;6028057;28;20049;-71
2022/03/04 05:33:41;;;;;;;12.60;4.90;;;;;;;-1.37;90.20;101762.63;6028217;28;20038;-71
2022/03/04 05:36:40;;;;;;;14.10;4.73;;;;;;;-1.17;90.31;101762.03;6028403;28;20469;-71
2022/03/04 05:39:35;;;;;;;9.15;4.47;;;;;;;-1.09;90.69;101767.00;6028369;28;20049;-73
2022/03/04 05:42:30;;;;;;;15.40;5.40;;;;;;;-0.94;90.85;101769.97;6027410;28;20042;-70
2022/03/04 05:45:26;;;;;;;15.30;4.77;;;;;;;-0.93;90.10;101768.22;6028680;28;20029;-71
2022/03/04 05:48:21;;;;;;;17.23;5.87;;;;;;;-0.84;90.19;101765.31;6026540;28;20304;-72
2022/03/04 05:51:17;;;;;;;11.07;5.03;;;;;;;-0.81;89.72;101762.63;6025627;28;20057;-72
2022/03/04 05:54:12;;;;;;;13.80;4.63;;;;;;;-0.75;89.56;101767.66;6026549;28;20058;-71
2022/03/04 05:57:07;;;;;;;13.50;5.33;;;;;;;-0.80;89.68;101770.41;6025771;28;20068;-71
2022/03/04 06:00:04;;;;;;;13.67;6.00;;;;;;;-0.70;89.09;101765.75;6027287;28;20022;-71
2022/03/04 06:02:59;;;;;;;11.80;4.28;;;;;;;-0.67;89.12;101776.06;6026094;28;20034;-74
2022/03/04 06:05:54;;;;;;;17.00;5.53;;;;;;;-0.70;88.73;101778.75;6028295;28;20076;-73
2022/03/04 06:08:50;;;;;;;14.13;5.03;;;;;;;-0.61;88.53;101776.75;6027018;28;20116;-73
2022/03/04 06:11:45;;;;;;;16.70;4.80;;;;;;;-0.49;89.06;101775.47;6027637;28;20458;-74
2022/03/04 06:14:41;;;;;;;14.25;4.50;;;;;;;-0.60;88.12;101785.41;6036714;28;20360;-73
2022/03/04 06:17:36;;;;;;;13.50;4.47;;;;;;;-0.56;88.09;101789.59;6029442;28;20105;-73
2022/03/04 06:20:32;;;;;;;16.08;5.57;;;;;;;-0.52;88.40;101779.94;6026948;28;20038;-72
2022/03/04 06:23:27;;;;;;;13.87;4.77;;;;;;;-0.49;88.15;101785.88;6019816;28;20030;-72
2022/03/04 06:26:22;;;;;;;16.07;5.53;;;;;;;-0.50;88.10;101785.94;6025225;28;20030;-72
2022/03/04 06:29:18;;;;;;;19.17;5.60;;;;;;;-0.45;87.90;101787.50;6034670;28;20045;-72
2022/03/04 06:32:15;;;;;;;13.50;5.60;;;;;;;-0.43;87.58;101785.69;6029849;28;20031;-74
2022/03/04 06:35:10;;;;;;;17.05;5.50;;;;;;;-0.39;87.28;101787.31;6027102;28;20096;-72
2022/03/04 06:38:06;;;;;;;14.77;5.63;;;;;;;-0.32;87.01;101796.63;6025966;28;20029;-72
2022/03/04 06:41:01;;;;;;;18.17;6.30;;;;;;;-0.23;86.83;101788.50;6026755;28;20046;-72
2022/03/04 06:43:56;;;;;;;15.20;5.73;;;;;;;-0.26;86.90;101793.81;6026833;28;20380;-73
2022/03/04 06:46:52;;;;;;;15.93;5.80;;;;;;;-0.21;86.45;101791.03;6026658;28;20331;-74
2022/03/04 06:49:47;;;;;;;18.15;6.20;;;;;;;-0.17;86.26;101813.50;6026790;28;20417;-72
2022/03/04 06:52:43;;;;;;;14.87;5.40;;;;;;;-0.03;86.12;101812.13;6026065;28;20042;-72
2022/03/04 06:55:38;;;;;;;14.10;4.60;;;;;;;0.09;85.18;101815.22;6026657;28;20058;-73
2022/03/04 06:58:34;;;;;;;24.23;6.32;;;;;;;-0.01;85.41;101820.78;6026214;28;20034;-72
2022/03/04 07:01:30;;;;;;;14.85;5.72;;;;;;;-0.07;85.69;101822.72;6025625;28;20477;-73
2022/03/04 07:04:25;;;;;;;11.80;5.17;;;;;;;-0.01;85.63;101831.19;6025319;28;20026;-73
2022/03/04 07:07:20;;;;;;;18.73;5.30;;;;;;;0.10;85.22;101835.19;6025825;28;20026;-72
2022/03/04 07:10:16;;;;;;;18.07;6.23;;;;;;;0.14;85.10;101839.38;6025240;28;20466;-73
2022/03/04 07:13:12;;;;;;;13.73;5.63;;;;;;;0.14;84.89;101834.16;6025343;28;20027;-73
2022/03/04 07:16:07;;;;;;;22.17;6.13;;;;;;;0.10;85.07;101840.41;6023123;28;20038;-71
2022/03/04 07:19:03;;;;;;;14.93;5.90;;;;;;;0.13;85.04;101854.19;6026162;28;20278;-72
2022/03/04 07:21:58;;;;;;;13.85;5.25;;;;;;;0.14;84.71;101849.81;6021413;28;20041;-71
2022/03/04 07:24:54;;;;;;;17.93;5.77;;;;;;;0.21;84.41;101849.56;6026169;28;20049;-72
2022/03/04 07:27:50;;;;;;;14.68;5.25;;;;;;;0.26;84.07;101844.19;6015811;28;20652;-72
2022/03/04 07:30:46;;;;;;;14.13;5.05;;;;;;;0.24;83.93;101846.00;6024686;28;20025;-71
2022/03/04 07:33:41;;;;;;;18.77;5.60;;;;;;;0.31;84.18;101844.88;6025211;28;20474;-71
2022/03/04 07:36:37;;;;;;;14.57;5.57;;;;;;;0.26;83.71;101841.56;6025634;28;20041;-71
2022/03/04 07:39:32;;;;;;;14.20;5.32;;;;;;;0.50;83.87;101853.75;6027425;28;20037;-72
2022/03/04 07:42:27;;;;;;;14.13;5.43;;;;;;;0.57;83.34;101850.03;6037083;28;20038;-72
2022/03/04 07:45:23;;;;;;;14.70;5.88;;;;;;;0.61;82.66;101846.41;6024334;28;20025;-72
2022/03/04 07:48:18;;;;;;;16.13;5.50;;;;;;;0.66;82.70;101854.06;6024918;28;20022;-71
2022/03/04 07:51:13;;;;;;;12.32;4.95;;;;;;;0.49;83.05;101862.50;6024738;28;20050;-72
2022/03/04 07:54:09;;;;;;;16.30;5.27;;;;;;;0.58;83.08;101857.81;6025434;28;20374;-73
2022/03/04 07:57:04;;;;;;;23.10;5.93;;;;;;;0.47;83.46;101859.94;6024216;28;20053;-73
2022/03/04 08:00:00;;;;;;;16.40;5.53;;;;;;;0.53;82.89;101858.88;6025001;28;20117;-73
2022/03/04 08:02:56;;;;;;;16.27;5.57;;;;;;;0.82;82.65;101861.28;6024559;28;20030;-72
2022/03/04 08:05:51;;;;;;;12.25;5.50;;;;;;;0.80;81.68;101857.88;6024403;28;20019;-72
2022/03/04 08:08:46;;;;;;;14.80;5.50;;;;;;;0.90;81.89;101863.59;6025558;28;20042;-71
2022/03/04 08:11:44;;;;;;;13.77;5.17;;;;;;;0.76;82.14;101856.28;6023830;28;20677;-72
2022/03/04 08:14:40;;;;;;;17.63;6.03;;;;;;;0.82;82.70;101861.28;6027415;28;20524;-73
2022/03/04 08:17:35;;;;;;;19.42;6.82;;;;;;;0.89;81.67;101862.78;6029152;28;20018;-70
2022/03/04 08:20:31;;;;;;;15.67;6.30;;;;;;;0.98;81.81;101867.63;6028484;28;20038;-73
2022/03/04 08:23:27;;;;;;;17.98;6.50;;;;;;;1.01;80.87;101859.69;6029560;28;20042;-72
2022/03/04 08:26:22;;;;;;;14.00;5.53;;;;;;;1.17;81.48;101865.19;6032740;28;20088;-73
2022/03/04 08:29:18;;;;;;;15.53;5.50;;;;;;;1.16;81.19;101860.88;6027525;28;20113;-74
2022/03/04 08:32:13;;;;;;;15.47;5.60;;;;;;;1.40;80.40;101856.47;6026207;28;20040;-73
2022/03/04 08:35:09;;;;;;;20.75;6.90;;;;;;;1.39;80.34;101860.84;6021450;28;20340;-73
2022/03/04 08:38:04;;;;;;;12.73;5.70;;;;;;;1.35;79.95;101867.13;6024755;28;20093;-73
2022/03/04 08:40:59;;;;;;;15.70;5.35;;;;;;;1.19;80.55;101860.78;6027237;28;20042;-73
2022/03/04 08:43:55;;;;;;;16.38;6.07;;;;;;;1.40;80.25;101864.31;6030259;28;20062;-73
2022/03/04 08:46:50;;;;;;;13.73;5.77;;;;;;;1.42;80.02;101872.94;6029935;28;20023;-71
2022/03/04 08:49:46;;;;;;;17.90;6.90;;;;;;;1.50;79.95;101876.97;6028161;28;20093;-72
2022/03/04 08:52:41;;;;;;;21.80;6.53;;;;;;;1.57;79.98;101869.75;6028375;28;20057;-72
2022/03/04 08:55:36;;;;;;;17.90;6.60;;;;;;;1.62;79.95;101875.63;6033815;28;20376;-72
2022/03/04 08:58:32;;;;;;;18.80;6.43;;;;;;;1.62;78.32;101876.50;6028654;28;20277;-73
2022/03/04 09:01:27;;;;;;;16.00;5.33;;;;;;;1.75;78.11;101871.63;6027861;28;20535;-74
2022/03/04 09:04:23;;;;;;;16.85;6.80;;;;;;;1.66;78.79;101866.75;6028990;28;20348;-73
2022/03/04 09:07:18;;;;;;;13.48;5.45;;;;;;;1.79;77.96;101879.25;6028457;28;20401;-73
2022/03/04 09:10:14;;;;;;;16.60;5.13;;;;;;;1.72;78.06;101879.56;6026375;28;20069;-72
2022/03/04 09:13:09;;;;;;;15.40;5.13;;;;;;;1.73;77.29;101883.91;6031975;28;20033;-71
2022/03/04 09:16:05;;;;;;;16.10;5.27;;;;;;;1.88;77.27;101878.03;6029459;28;20273;-71
2022/03/04 09:19:00;;;;;;;15.20;5.32;;;;;;;1.97;77.18;101888.16;6037869;28;20037;-73
2022/03/04 09:21:56;;;;;;;15.55;4.47;;;;;;;2.04;77.91;101881.75;6027800;28;20064;-73
2022/03/04 09:24:52;;;;;;;14.38;4.25;;;;;;;2.22;76.86;101883.63;6027987;28;20049;-72
2022/03/04 09:27:49;;;;;;;10.23;4.10;;;;;;;2.32;75.99;101890.16;6027680;28;20070;-72
2022/03/04 09:30:45;;;;;;;8.98;3.90;;;;;;;2.05;76.96;101882.59;6027402;28;20089;-73
2022/03/04 09:33:40;;;;;;;12.07;4.80;;;;;;;2.16;76.30;101886.47;6028260;28;20116;-72
2022/03/04 09:36:35;;;;;;;11.53;5.23;;;;;;;1.99;76.43;101894.16;6025763;28;20288;-73
2022/03/04 09:39:31;;;;;;;10.10;4.30;;;;;;;2.06;76.06;101898.25;6028694;28;20052;-72
2022/03/04 09:42:27;;;;;;;10.27;3.60;;;;;;;2.08;76.17;101899.03;6025843;28;20034;-72
2022/03/04 09:45:22;;;;;;;11.15;3.90;;;;;;;2.32;76.40;101911.09;6027864;28;20308;-72
2022/03/04 09:48:17;;;;;;;13.73;3.87;;;;;;;2.42;75.49;101907.16;6028360;28;20074;-73
2022/03/04 09:51:13;;;;;;;10.40;4.00;;;;;;;2.36;74.96;101910.03;6027937;28;20261;-72
2022/03/04 09:54:08;;;;;;;12.33;4.27;;;;;;;2.52;75.78;101912.88;6028009;28;20040;-73
2022/03/04 09:57:03;;;;;;;10.43;4.65;;;;;;;2.57;75.55;101907.44;6027985;28;20031;-73
2022/03/04 09:59:59;;;;;;;9.32;4.00;;;;;;;2.99;74.16;101908.16;6028019;28;20049;-72
2022/03/04 10:02:54;;;;;;;13.02;4.03;;;;;;;2.90;72.83;101911.19;6027083;28;20354;-71
2022/03/04 10:05:54;;;;;;;11.07;3.85;;;;;;;2.84;73.62;101919.31;6028235;28;20040;-71
2022/03/04 10:08:51;;;;;;;10.32;4.00;;;;;;;2.61;75.64;101922.94;6027729;28;20034;-72
2022/03/04 10:11:46;;;;;;;15.98;4.78;;;;;;;2.64;76.23;101929.78;6027445;28;20054;-73
2022/03/04 10:15:07;;;;;;;14.73;4.40;;;;;;;2.71;75.54;101924.25;6027626;28;20092;-72
2022/03/04 10:18:04;;;;;;;10.88;4.57;;;;;;;2.36;76.12;101927.53;6015702;28;20034;-72
2022/03/04 10:20:59;;;;;;;13.38;5.13;;;;;;;2.48;76.34;101915.66;6026410;28;20146;-72
2022/03/04 10:24:07;;;;;;;15.27;5.53;;;;;;;2.47;76.42;101919.22;6027806;28;20037;-72
2022/03/04 10:27:05;;;;;;;;;;;;;;;2.28;77.20;101922.56;6027789;28;20261;-72
2022/03/04 10:30:01;;;;;;;12.30;5.20;;;;;;;2.23;76.45;101921.91;6026539;28;20335;-73
2022/03/04 10:33:07;;;;;;;15.35;5.10;;;;;;;2.37;75.93;101911.75;6024527;28;20042;-73
2022/03/04 10:36:11;;;;;;;17.73;6.68;;;;;;;2.15;76.97;101926.63;6004243;28;20027;-71
2022/03/04 10:39:11;;;;;;;18.73;5.88;;;;;;;2.13;77.49;101922.38;6022317;28;20527;-72
2022/03/04 10:42:06;;;;;;;15.18;5.28;;;;;;;2.18;76.84;101921.25;6035782;28;20041;-73
2022/03/04 10:45:07;;;;;;;12.47;4.40;;;;;;;2.14;76.67;101924.94;6027239;28;20374;-72
2022/03/04 10:48:09;;;;;;;13.55;4.70;;;;;;;2.18;75.87;101923.88;6027254;28;20019;-71
2022/03/04 10:51:04;;;;;;;13.82;6.38;;;;;;;2.31;76.22;101924.25;6026740;28;20038;-73
2022/03/04 10:54:13;;;;;;;14.10;5.22;;;;;;;2.25;76.50;101935.81;6022192;28;20030;-71
2022/03/04 10:57:08;;;;;;;17.45;6.65;;;;;;;1.99;76.72;101932.53;6027242;28;20034;-71
2022/03/04 11:00:04;;;;;;;11.70;4.43;;;;;;;2.16;77.15;101935.31;6026393;28;20421;-71
2022/03/04 11:03:00;;;;;;;15.77;5.82;;;;;;;1.87;76.60;101939.13;6026786;28;20014;-72
2022/03/04 11:05:57;;;;;;;12.65;4.35;;;;;;;1.92;77.04;101934.56;6033693;28;20034;-72
2022/03/04 11:08:54;;;;;;;16.65;5.60;;;;;;;1.93;77.51;101933.63;6003143;28;20035;-73
2022/03/04 11:11:51;;;;;;;14.77;6.07;;;;;;;1.75;78.80;101939.59;6020040;28;20462;-73
2022/03/04 11:14:46;;;;;;;15.88;5.20;;;;;;;1.76;79.49;101946.53;6019122;28;20068;-73
2022/03/04 11:17:42;;;;;;;14.85;5.47;;;;;;;1.70;78.48;101937.16;6024946;28;20056;-72
2022/03/04 11:20:40;;;;;;;13.00;4.43;;;;;;;1.91;79.23;101935.47;6041157;28;20381;-72
2022/03/04 11:23:37;;;;;;;14.43;5.40;;;;;;;2.14;78.23;101930.16;6026035;28;20077;-73
2022/03/04 11:26:32;;;;;;;16.85;5.53;;;;;;;1.98;78.54;101934.31;6026609;28;20053;-72
2022/03/04 11:29:35;;;;;;;15.20;5.47;;;;;;;1.93;78.86;101933.63;6026019;28;20030;-73
2022/03/04 11:32:30;;;;;;;13.82;4.93;;;;;;;1.89;79.10;101936.44;6025830;28;20745;-71
2022/03/04 11:35:56;;;;;;;17.13;6.20;;;;;;;1.74;78.89;101943.97;6026324;28;20053;-71
2022/03/04 11:38:54;;;;;;;20.02;6.97;;;;;;;1.66;79.33;101946.03;6026253;28;20040;-73
2022/03/04 11:41:53;;;;;;;14.35;5.50;;;;;;;1.74;79.86;101937.88;6018842;28;20038;-73
2022/03/04 11:44:56;;;;;;;14.43;4.40;;;;;;;1.76;79.14;101944.78;6002630;28;20030;-73
2022/03/04 11:48:04;;;;;;;13.75;4.53;;;;;;;1.98;78.80;101941.31;6024036;28;20030;-73
2022/03/04 11:51:03;;;;;;;13.18;5.00;;;;;;;2.08;76.98;101940.88;6021012;28;20370;-72
2022/03/04 11:54:24;;;;;;;13.15;4.75;;;;;;;2.05;77.04;101941.00;6013745;28;20501;-72
2022/03/04 11:57:21;;;;;;;13.77;5.65;;;;;;;1.77;76.20;101950.84;6012201;28;20030;-73
2022/03/04 12:00:16;;;;;;;12.32;4.35;;;;;;;1.99;76.44;101936.00;6005869;28;20035;-71
2022/03/04 12:03:14;;;;;;;15.20;4.60;;;;;;;2.21;74.64;101943.84;6023581;28;20037;-72
2022/03/04 12:06:23;;;;;;;11.68;4.68;;;;;;;2.21;73.99;101931.59;6025877;28;20085;-70
2022/03/04 12:09:31;;;;;;;11.93;4.00;;;;;;;2.46;73.38;101920.97;6025877;28;20440;-73
2022/03/04 12:12:27;;;;;;;8.75;3.20;;;;;;;2.01;72.59;101918.47;6025408;28;20026;-73
2022/03/04 12:15:22;;;;;;;7.93;2.70;;;;;;;2.59;72.05;101913.44;6024468;28;20042;-72
2022/03/04 12:18:27;;;;;;;6.68;2.75;;;;;;;2.41;72.20;101899.38;6042642;28;20496;-71
2022/03/04 12:21:25;;;;;;;6.25;2.40;;;;;;;2.76;71.91;101910.94;6018143;28;20425;-71
2022/03/04 12:24:27;;;;;;;8.55;4.57;;;;;;;2.77;71.67;101907.44;6025717;28;20040;-73
2022/03/04 12:27:36;;;;;;;5.85;2.80;;;;;;;3.10;71.33;101912.94;6023162;28;20481;-73
2022/03/04 12:30:31;;;;;;;12.90;2.72;;;;;;;3.42;70.12;101897.44;6039712;28;20120;-73
2022/03/04 12:33:34;;;;;;;9.47;2.97;;;;;;;3.18;69.92;101906.41;6024654;28;20108;-71
2022/03/04 12:36:29;;;;;;;6.60;2.95;;;;;;;3.35;69.97;101901.25;6024929;28;20022;-72
2022/03/04 12:39:24;;;;;;;8.70;3.03;;;;;;;2.75;71.43;101904.84;6025705;28;20053;-71
2022/03/04 12:42:20;;;;;;;7.30;2.83;;;;;;;3.06;71.42;101899.13;6014578;28;20274;-71
2022/03/04 12:45:15;;;;;;;8.00;3.10;;;;;;;2.92;71.47;101896.25;6002014;28;20028;-73
2022/03/04 12:48:10;;;;;;;7.50;2.97;;;;;;;2.91;72.53;101894.56;6002250;28;20062;-71
2022/03/04 12:51:20;;;;;;;5.50;2.30;;;;;;;3.04;71.04;101894.88;6001215;28;20058;-71
2022/03/04 12:54:20;;;;;;;5.75;2.55;;;;;;;2.78;71.47;101888.16;6012020;28;20026;-74
2022/03/04 12:57:17;;;;;;;5.40;2.40;;;;;;;2.93;71.40;101892.72;6025262;28;20030;-72
2022/03/04 13:00:12;;;;;;;4.75;2.13;;;;;;;2.89;71.49;101883.28;6024988;28;20077;-74
2022/03/04 13:03:20;;;;;;;7.77;2.87;;;;;;;2.68;71.51;101879.00;6035029;28;20022;-72
2022/03/04 13:06:16;;;;;;;7.15;2.25;;;;;;;3.13;70.85;101882.19;6029663;28;20050;-72
2022/03/04 13:09:12;;;;;;;6.82;2.20;;;;;;;3.36;69.71;101871.50;6029531;28;20123;-73
2022/03/04 13:12:08;;;;;;;6.93;2.60;;;;;;;3.68;69.87;101869.97;6027303;28;20484;-72
2022/03/04 13:15:10;;;;;;;5.65;2.10;;;;;;;3.43;68.17;101869.44;6025007;28;20378;-71
2022/03/04 13:18:05;;;;;;;4.85;2.10;;;;;;;3.29;68.50;101867.47;6029132;28;20038;-74
2022/03/04 13:21:05;;;;;;;6.10;2.20;;;;;;;3.28;67.41;101859.69;6027427;28;20072;-72
2022/03/04 13:24:06;;;;;;;5.57;1.90;;;;;;;3.68;68.13;101858.63;6029371;28;20034;-74
2022/03/04 13:27:01;;;;;;;;;;;;;;;3.54;67.85;101854.91;6029748;28;20030;-73
2022/03/04 13:29:58;;;;;;;3.57;1.60;;;;;;;3.47;67.76;101853.50;6028741;28;19956;-74
2022/03/04 13:32:56;;;;;;;7.63;1.95;;;;;;;3.17;67.83;101859.31;6030068;28;20466;-73
2022/03/04 13:35:55;;;;;;;5.18;1.77;;;;;;;3.08;67.51;101851.88;6028696;28;20072;-73
2022/03/04 13:38:51;;;;;;;6.18;2.13;;;;;;;3.16;67.24;101850.59;6021358;28;20049;-72